Time;durP1;ratioP1;P1;durP2;ratioP2;P2;SDS_P1;SDS_P2;PMS_P1;PMS_P2;Temp;Humidity;BMP_temperature;BMP_pressure;BME280_temperature;BME280_humidity;BME280_pressure;Samples;Min_cycle;Max_cycle;Signal;HPM_P1;HPM_P2
2023/10/06 00:02:08;;;;;;;;;;;;;;;;;;5061678;28;20371;-72
2023/10/06 00:04:38;;;;;;;;;;;;;;;;;;5061265;28;19917;-72
2023/10/06 00:07:07;;;;;;;;;;;;;;;;;;5058665;28;19913;-72
2023/10/06 00:09:33;;;;;;;;;;;;;;;;;;5058765;28;19908;-72
2023/10/06 00:11:59;;;;;;;;;;;;;;;;;;5062341;28;20003;-72
2023/10/06 00:14:42;;;;;;;;;;;;;;;;;;5059805;28;20434;-72
2023/10/06 00:17:17;;;;;;;;;;;;;;;;;;5058624;28;19909;-72
2023/10/06 00:19:43;;;;;;;;;;;;;;;;;;5059519;28;19936;-72
2023/10/06 00:22:17;;;;;;;;;;;;;;;;;;5064813;28;20412;-73
2023/10/06 00:24:50;;;;;;;;;;;;;;;;;;5052298;28;20391;-73
2023/10/06 00:27:19;;;;;;;;;;;;;;;;;;5058552;28;19909;-73
2023/10/06 00:29:54;;;;;;;;;;;;;;;;;;5060131;28;19916;-72
2023/10/06 00:32:25;;;;;;;;;;;;;;;;;;5061638;28;19912;-72
2023/10/06 00:34:50;;;;;;;;;;;;;;;;;;5064000;28;19909;-72
2023/10/06 00:37:16;;;;;;;;;;;;;;;;;;5058250;28;19908;-71
2023/10/06 00:39:42;;;;;;;;;;;;;;;;;;5059214;28;19932;-73
2023/10/06 00:42:08;;;;;;;;;;;;;;;;;;5061412;28;19908;-73
2023/10/06 00:44:35;;;;;;;;;;;;;;;;;;5057638;28;19912;-73
2023/10/06 00:47:04;;;;;;;;;;;;;;;;;;5057676;28;19920;-72
2023/10/06 00:49:30;;;;;;;;;;;;;;;;;;5060617;28;20283;-72
2023/10/06 00:51:56;;;;;;;;;;;;;;;;;;5069372;28;19991;-73
2023/10/06 00:54:25;;;;;;;;;;;;;;;;;;5053966;28;19909;-72
2023/10/06 00:56:51;;;;;;;;;;;;;;;;;;5063124;28;19909;-72
2023/10/06 00:59:16;;;;;;;;;;;;;;;;;;5057478;28;19924;-71
2023/10/06 01:01:42;;;;;;;;;;;;;;;;;;5056794;28;19917;-73
2023/10/06 01:04:08;;;;;;;;;;;;;;;;;;5060454;28;19944;-73
2023/10/06 01:06:35;;;;;;;;;;;;;;;;;;5061158;28;19913;-72
2023/10/06 01:09:22;;;;;;;;;;;;;;;;;;5062644;28;20338;-72
2023/10/06 01:11:51;;;;;;;;;;;;;;;;;;5059440;28;19923;-72
2023/10/06 01:14:21;;;;;;;;;;;;;;;;;;5050317;28;20349;-72
2023/10/06 01:16:49;;;;;;;;;;;;;;;;;;5057505;28;19909;-73
2023/10/06 01:19:17;;;;;;;;;;;;;;;;;;5057437;28;19916;-72
2023/10/06 01:21:43;;;;;;;;;;;;;;;;;;5058709;28;19913;-73
2023/10/06 01:24:13;;;;;;;;;;;;;;;;;;5067087;28;19991;-72
2023/10/06 01:26:41;;;;;;;;;;;;;;;;;;5049279;28;19909;-72
2023/10/06 01:29:10;;;;;;;;;;;;;;;;;;5056990;28;19917;-72
2023/10/06 01:31:39;;;;;;;;;;;;;;;;;;5084879;22;19924;-71
2023/10/06 01:34:07;;;;;;;;;;;;;;;;;;5068366;28;19908;-73
2023/10/06 01:36:33;;;;;;;;;;;;;;;;;;5060238;28;19908;-73
2023/10/06 01:39:04;;;;;;;;;;;;;;;;;;5063457;28;19920;-73
2023/10/06 01:41:34;;;;;;;;;;;;;;;;;;5064773;28;19916;-73
2023/10/06 01:44:00;;;;;;;;;;;;;;;;;;5065509;28;20360;-71
2023/10/06 01:46:26;;;;;;;;;;;;;;;;;;5071224;28;19913;-72
2023/10/06 01:48:52;;;;;;;;;;;;;;;;;;5064519;28;19909;-70
2023/10/06 01:51:19;;;;;;;;;;;;;;;;;;5068274;28;19954;-70
2023/10/06 01:53:45;;;;;;;;;;;;;;;;;;5068977;28;19948;-70
2023/10/06 01:56:18;;;;;;;;;;;;;;;;;;5071443;28;19908;-72
2023/10/06 01:58:45;;;;;;;;;;;;;;;;;;5063011;28;20355;-72
2023/10/06 02:01:18;;;;;;;;;;;;;;;;;;5069925;28;19944;-72
2023/10/06 02:03:44;;;;;;;;;;;;;;;;;;5062247;28;19909;-72
2023/10/06 02:06:16;;;;;;;;;;;;;;;;;;5072226;28;20316;-73
2023/10/06 02:08:52;;;;;;;;;;;;;;;;;;5062696;28;19919;-71
2023/10/06 02:11:20;;;;;;;;;;;;;;;;;;5070097;28;19915;-72
2023/10/06 02:13:46;;;;;;;;;;;;;;;;;;5070779;28;19908;-71
2023/10/06 02:16:12;;;;;;;;;;;;;;;;;;5070176;28;19908;-71
2023/10/06 02:18:40;;;;;;;;;;;;;;;;;;5070059;28;20359;-72
2023/10/06 02:21:14;;;;;;;;;;;;;;;;;;5063988;28;20373;-71
2023/10/06 02:23:41;;;;;;;;;;;;;;;;;;5062031;28;19909;-71
2023/10/06 02:26:08;;;;;;;;;;;;;;;;;;5074077;28;19908;-71
2023/10/06 02:28:34;;;;;;;;;;;;;;;;;;5075002;28;19909;-71
2023/10/06 02:31:05;;;;;;;;;;;;;;;;;;5068686;28;19923;-74
2023/10/06 02:33:36;;;;;;;;;;;;;;;;;;5072327;28;19916;-72
2023/10/06 02:36:03;;;;;;;;;;;;;;;;;;5070059;28;19912;-71
2023/10/06 02:38:41;;;;;;;;;;;;;;;;;;5075017;28;19912;-71
2023/10/06 02:41:07;;;;;;;;;;;;;;;;;;5073716;28;19908;-70
2023/10/06 02:43:34;;;;;;;;;;;;;;;;;;5072836;28;19922;-71
2023/10/06 02:46:07;;;;;;;;;;;;;;;;;;5074905;28;19966;-71
2023/10/06 02:48:33;;;;;;;;;;;;;;;;;;5075045;28;19923;-71
2023/10/06 02:51:01;;;;;;;;;;;;;;;;;;5074620;28;20295;-72
2023/10/06 02:53:29;;;;;;;;;;;;;;;;;;5074362;28;19915;-71
2023/10/06 02:56:06;;;;;;;;;;;;;;;;;;5074316;28;19917;-71
2023/10/06 02:58:33;;;;;;;;;;;;;;;;;;5074353;28;20402;-71
2023/10/06 03:00:59;;;;;;;;;;;;;;;;;;5074283;28;20376;-70
2023/10/06 03:03:28;;;;;;;;;;;;;;;;;;5074123;28;19920;-71
2023/10/06 03:05:55;;;;;;;;;;;;;;;;;;5074152;28;19912;-71
2023/10/06 03:08:22;;;;;;;;;;;;;;;;;;5074021;28;20376;-70
2023/10/06 03:10:48;;;;;;;;;;;;;;;;;;5074082;28;20360;-71
2023/10/06 03:13:14;;;;;;;;;;;;;;;;;;5073997;28;19920;-70
2023/10/06 03:15:46;;;;;;;;;;;;;;;;;;5073811;28;20249;-72
2023/10/06 03:18:12;;;;;;;;;;;;;;;;;;5072992;28;19908;-71
2023/10/06 03:21:22;;;;;;;;;;;;;;;;;;5065791;28;19912;-71
2023/10/06 03:23:38;;;;;;;;;;;;;;;;;;5059512;28;19909;-72
2023/10/06 03:26:09;;;;;;;;;;;;;;;;;;5069606;28;19908;-72
2023/10/06 03:28:42;;;;;;;;;;;;;;;;;;5065658;28;19909;-72
2023/10/06 03:33:44;;;;;;;;;;;;;;;;;;5071581;28;19909;-73
2023/10/06 03:36:11;;;;;;;;;;;;;;;;;;5073400;28;20352;-72
2023/10/06 03:38:42;;;;;;;;;;;;;;;;;;5073818;28;19939;-72
2023/10/06 03:41:24;;;;;;;;;;;;;;;;;;5073822;28;19908;-72
2023/10/06 03:43:51;;;;;;;;;;;;;;;;;;5071716;28;19943;-71
2023/10/06 03:46:18;;;;;;;;;;;;;;;;;;5074049;28;19908;-72
2023/10/06 03:48:44;;;;;;;;;;;;;;;;;;5073522;28;20346;-71
2023/10/06 03:51:11;;;;;;;;;;;;;;;;;;5073360;28;19996;-71
2023/10/06 03:53:37;;;;;;;;;;;;;;;;;;5070919;28;19935;-71
2023/10/06 03:56:03;;;;;;;;;;;;;;;;;;5071865;28;20372;-71
2023/10/06 03:58:29;;;;;;;;;;;;;;;;;;5069782;28;19916;-71
2023/10/06 04:00:55;;;;;;;;;;;;;;;;;;5067202;28;19908;-71
2023/10/06 04:03:21;;;;;;;;;;;;;;;;;;5073249;28;19940;-72
2023/10/06 04:05:48;;;;;;;;;;;;;;;;;;5073242;28;19999;-71
2023/10/06 04:08:15;;;;;;;;;;;;;;;;;;5072922;28;19909;-72
2023/10/06 04:10:42;;;;;;;;;;;;;;;;;;5073118;28;19909;-71
2023/10/06 04:13:08;;;;;;;;;;;;;;;;;;5073042;28;19908;-72
2023/10/06 04:15:36;;;;;;;;;;;;;;;;;;5072348;28;20003;-71
2023/10/06 04:18:02;;;;;;;;;;;;;;;;;;5073022;28;19995;-71
2023/10/06 04:20:28;;;;;;;;;;;;;;;;;;5064578;28;19951;-71
2023/10/06 04:22:54;;;;;;;;;;;;;;;;;;5072867;28;19908;-71
2023/10/06 04:25:21;;;;;;;;;;;;;;;;;;5070839;28;19917;-71
2023/10/06 04:27:46;;;;;;;;;;;;;;;;;;5072590;28;19915;-70
2023/10/06 04:30:12;;;;;;;;;;;;;;;;;;5072778;28;19909;-70
2023/10/06 04:32:38;;;;;;;;;;;;;;;;;;5072320;28;19923;-70
2023/10/06 04:35:04;;;;;;;;;;;;;;;;;;5065141;28;20296;-70
2023/10/06 04:37:30;;;;;;;;;;;;;;;;;;5071230;28;19916;-73
2023/10/06 04:39:56;;;;;;;;;;;;;;;;;;5072347;28;19917;-71
2023/10/06 04:42:22;;;;;;;;;;;;;;;;;;5062781;28;19909;-72
2023/10/06 04:44:48;;;;;;;;;;;;;;;;;;5072246;28;19934;-72
2023/10/06 04:47:15;;;;;;;;;;;;;;;;;;5071392;28;19916;-72
2023/10/06 04:49:47;;;;;;;;;;;;;;;;;;5072220;28;19909;-73
2023/10/06 04:52:13;;;;;;;;;;;;;;;;;;5064060;28;19909;-72
2023/10/06 04:54:39;;;;;;;;;;;;;;;;;;5071600;28;19916;-72
2023/10/06 04:57:08;;;;;;;;;;;;;;;;;;5061624;28;20102;-72
2023/10/06 04:59:36;;;;;;;;;;;;;;;;;;5063339;28;19982;-72
2023/10/06 05:02:02;;;;;;;;;;;;;;;;;;5062569;28;20273;-72
2023/10/06 05:04:28;;;;;;;;;;;;;;;;;;5070547;28;19915;-72
2023/10/06 05:06:54;;;;;;;;;;;;;;;;;;5071577;28;20390;-73
2023/10/06 05:09:21;;;;;;;;;;;;;;;;;;5072804;28;19912;-71
2023/10/06 05:11:47;;;;;;;;;;;;;;;;;;5071829;28;19909;-71
2023/10/06 05:14:12;;;;;;;;;;;;;;;;;;5062052;28;20372;-70
2023/10/06 05:16:38;;;;;;;;;;;;;;;;;;5070666;28;19908;-72
2023/10/06 05:19:04;;;;;;;;;;;;;;;;;;5070596;28;20014;-72
2023/10/06 05:21:31;;;;;;;;;;;;;;;;;;5071590;28;19963;-74
2023/10/06 05:23:56;;;;;;;;;;;;;;;;;;5071294;28;19916;-73
2023/10/06 05:26:24;;;;;;;;;;;;;;;;;;5068879;28;19913;-70
2023/10/06 05:28:50;;;;;;;;;;;;;;;;;;5071451;28;19913;-70
2023/10/06 05:31:16;;;;;;;;;;;;;;;;;;5071726;28;19917;-71
2023/10/06 05:33:42;;;;;;;;;;;;;;;;;;5071265;28;19912;-71
2023/10/06 05:36:09;;;;;;;;;;;;;;;;;;5071594;28;19920;-71
2023/10/06 05:38:37;;;;;;;;;;;;;;;;;;5063143;28;19913;-69
2023/10/06 05:41:03;;;;;;;;;;;;;;;;;;5070751;28;19909;-72
2023/10/06 05:43:30;;;;;;;;;;;;;;;;;;5062486;28;20004;-70
2023/10/06 05:45:57;;;;;;;;;;;;;;;;;;5071367;28;19912;-70
2023/10/06 05:48:27;;;;;;;;;;;;;;;;;;5063120;28;20011;-71
2023/10/06 05:51:01;;;;;;;;;;;;;;;;;;5071037;28;19909;-70
2023/10/06 05:53:30;;;;;;;;;;;;;;;;;;5070988;28;20232;-69
2023/10/06 05:55:58;;;;;;;;;;;;;;;;;;5069324;28;19920;-69
2023/10/06 05:58:24;;;;;;;;;;;;;;;;;;5070113;28;20364;-69
2023/10/06 06:00:56;;;;;;;;;;;;;;;;;;5069147;28;19912;-69
2023/10/06 06:03:23;;;;;;;;;;;;;;;;;;5070950;28;20046;-70
2023/10/06 06:05:49;;;;;;;;;;;;;;;;;;5070184;28;19923;-69
2023/10/06 06:08:15;;;;;;;;;;;;;;;;;;5070981;28;19909;-69
2023/10/06 06:10:41;;;;;;;;;;;;;;;;;;5069658;28;19909;-69
2023/10/06 06:13:06;;;;;;;;;;;;;;;;;;5066848;28;19916;-68
2023/10/06 06:15:32;;;;;;;;;;;;;;;;;;5067421;28;19915;-70
2023/10/06 06:17:58;;;;;;;;;;;;;;;;;;5070557;28;20037;-70
2023/10/06 06:20:24;;;;;;;;;;;;;;;;;;5070768;28;19920;-69
2023/10/06 06:22:53;;;;;;;;;;;;;;;;;;5069612;28;19913;-71
2023/10/06 06:25:19;;;;;;;;;;;;;;;;;;5068134;28;19913;-69
2023/10/06 06:27:45;;;;;;;;;;;;;;;;;;5067876;28;19909;-70
2023/10/06 06:30:11;;;;;;;;;;;;;;;;;;5069843;28;20004;-69
2023/10/06 06:32:37;;;;;;;;;;;;;;;;;;5069262;28;20011;-70
2023/10/06 06:35:05;;;;;;;;;;;;;;;;;;5068851;28;20272;-70
2023/10/06 06:37:31;;;;;;;;;;;;;;;;;;5070207;28;20264;-71
2023/10/06 06:39:57;;;;;;;;;;;;;;;;;;5070562;28;19919;-71
2023/10/06 06:42:23;;;;;;;;;;;;;;;;;;5070461;28;19909;-72
2023/10/06 06:44:50;;;;;;;;;;;;;;;;;;5064908;28;20729;-72
2023/10/06 06:47:16;;;;;;;;;;;;;;;;;;5066016;28;19916;-71
2023/10/06 06:49:43;;;;;;;;;;;;;;;;;;5070246;28;19912;-72
2023/10/06 06:52:09;;;;;;;;;;;;;;;;;;5068851;28;20446;-72
2023/10/06 06:54:38;;;;;;;;;;;;;;;;;;5066194;28;19948;-73
2023/10/06 06:57:04;;;;;;;;;;;;;;;;;;5080800;28;19908;-71
2023/10/06 06:59:31;;;;;;;;;;;;;;;;;;5068980;28;19924;-72
2023/10/06 07:01:58;;;;;;;;;;;;;;;;;;5064454;28;19935;-71
2023/10/06 07:04:26;;;;;;;;;;;;;;;;;;5069577;28;20008;-71
2023/10/06 07:06:52;;;;;;;;;;;;;;;;;;5070221;28;19916;-71
2023/10/06 07:09:18;;;;;;;;;;;;;;;;;;5070262;28;19909;-71
2023/10/06 07:11:44;;;;;;;;;;;;;;;;;;5062845;28;19923;-71
2023/10/06 07:14:10;;;;;;;;;;;;;;;;;;5070044;28;20340;-70
2023/10/06 07:16:36;;;;;;;;;;;;;;;;;;5069959;28;19916;-71
2023/10/06 07:19:02;;;;;;;;;;;;;;;;;;5068628;28;19936;-71
2023/10/06 07:21:29;;;;;;;;;;;;;;;;;;5072354;28;19916;-71
2023/10/06 07:23:56;;;;;;;;;;;;;;;;;;5063714;28;20501;-71
2023/10/06 07:26:22;;;;;;;;;;;;;;;;;;5073866;28;20004;-72
2023/10/06 07:28:56;;;;;;;;;;;;;;;;;;5073897;28;19908;-71
2023/10/06 07:31:24;;;;;;;;;;;;;;;;;;5074086;28;19962;-72
2023/10/06 07:34:03;;;;;;;;;;;;;;;;;;5072656;28;20268;-71
2023/10/06 07:36:29;;;;;;;;;;;;;;;;;;5073423;28;19912;-70
2023/10/06 07:38:55;;;;;;;;;;;;;;;;;;5073527;28;19970;-71
2023/10/06 07:41:23;;;;;;;;;;;;;;;;;;5073558;28;19908;-71
2023/10/06 07:43:49;;;;;;;;;;;;;;;;;;5072273;28;19916;-71
2023/10/06 07:46:16;;;;;;;;;;;;;;;;;;5073120;28;19962;-71
2023/10/06 07:48:42;;;;;;;;;;;;;;;;;;5072150;28;20285;-71
2023/10/06 07:51:13;;;;;;;;;;;;;;;;;;5073345;28;20026;-71
2023/10/06 07:53:39;;;;;;;;;;;;;;;;;;5072462;28;19939;-71
2023/10/06 07:56:08;;;;;;;;;;;;;;;;;;5073118;28;20038;-71
2023/10/06 07:58:37;;;;;;;;;;;;;;;;;;5072962;28;20443;-71
2023/10/06 08:01:07;;;;;;;;;;;;;;;;;;5071666;28;20072;-70
2023/10/06 08:03:33;;;;;;;;;;;;;;;;;;5071899;28;19920;-71
2023/10/06 08:06:00;;;;;;;;;;;;;;;;;;5072586;28;19918;-70
2023/10/06 08:08:26;;;;;;;;;;;;;;;;;;5072969;28;19916;-70
2023/10/06 08:10:52;;;;;;;;;;;;;;;;;;5067673;28;19909;-71
2023/10/06 08:13:18;;;;;;;;;;;;;;;;;;5069275;28;19954;-71
2023/10/06 08:15:44;;;;;;;;;;;;;;;;;;5072371;28;19970;-72
2023/10/06 08:18:12;;;;;;;;;;;;;;;;;;5071713;28;20425;-71
2023/10/06 08:20:40;;;;;;;;;;;;;;;;;;5072324;28;20002;-72
2023/10/06 08:23:07;;;;;;;;;;;;;;;;;;5072054;28;20451;-72
2023/10/06 08:25:33;;;;;;;;;;;;;;;;;;5071838;28;20363;-71
2023/10/06 08:28:04;;;;;;;;;;;;;;;;;;5064097;28;19912;-70
2023/10/06 08:30:32;;;;;;;;;;;;;;;;;;5072445;28;20288;-71
2023/10/06 08:32:59;;;;;;;;;;;;;;;;;;5072355;28;19931;-71
2023/10/06 08:35:26;;;;;;;;;;;;;;;;;;5071692;28;20283;-71
2023/10/06 08:37:52;;;;;;;;;;;;;;;;;;5072283;28;19920;-71
2023/10/06 08:40:26;;;;;;;;;;;;;;;;;;5072051;28;19912;-71
2023/10/06 08:42:52;;;;;;;;;;;;;;;;;;5071331;28;19908;-74
2023/10/06 08:45:19;;;;;;;;;;;;;;;;;;5071363;28;20391;-72
2023/10/06 08:47:45;;;;;;;;;;;;;;;;;;5071932;28;20010;-71
2023/10/06 08:50:17;;;;;;;;;;;;;;;;;;5072174;28;19999;-71
2023/10/06 08:52:49;;;;;;;;;;;;;;;;;;5064305;28;19915;-72
2023/10/06 08:55:15;;;;;;;;;;;;;;;;;;5071717;28;19959;-70
2023/10/06 08:57:45;;;;;;;;;;;;;;;;;;5071428;28;19936;-71
2023/10/06 09:00:11;;;;;;;;;;;;;;;;;;5068975;28;19912;-71
2023/10/06 09:02:37;;;;;;;;;;;;;;;;;;5071119;28;19915;-72
2023/10/06 09:05:03;;;;;;;;;;;;;;;;;;5069636;28;19908;-72
2023/10/06 09:07:29;;;;;;;;;;;;;;;;;;5071099;28;19966;-71
2023/10/06 09:09:55;;;;;;;;;;;;;;;;;;5070930;28;19912;-72
2023/10/06 09:12:21;;;;;;;;;;;;;;;;;;5070405;28;19953;-72
2023/10/06 09:14:47;;;;;;;;;;;;;;;;;;5071353;28;19947;-71
2023/10/06 09:17:13;;;;;;;;;;;;;;;;;;5070932;28;19962;-70
2023/10/06 09:19:39;;;;;;;;;;;;;;;;;;5070140;28;19924;-71
2023/10/06 09:22:06;;;;;;;;;;;;;;;;;;5071159;28;19912;-71
2023/10/06 09:24:32;;;;;;;;;;;;;;;;;;5067036;28;19908;-71
2023/10/06 09:26:58;;;;;;;;;;;;;;;;;;5065842;28;20005;-71
2023/10/06 09:29:24;;;;;;;;;;;;;;;;;;5071242;28;20402;-71
2023/10/06 09:31:51;;;;;;;;;;;;;;;;;;5070110;28;19912;-72
2023/10/06 09:34:17;;;;;;;;;;;;;;;;;;5068510;28;19920;-70
2023/10/06 09:36:43;;;;;;;;;;;;;;;;;;5063367;28;19908;-71
2023/10/06 09:39:14;;;;;;;;;;;;;;;;;;5070152;28;19912;-72
2023/10/06 09:41:40;;;;;;;;;;;;;;;;;;5069122;28;19916;-70
2023/10/06 09:44:09;;;;;;;;;;;;;;;;;;5070319;28;20026;-70
2023/10/06 09:46:35;;;;;;;;;;;;;;;;;;5070542;28;20367;-69
2023/10/06 09:49:01;;;;;;;;;;;;;;;;;;5071812;28;19908;-71
2023/10/06 09:51:27;;;;;;;;;;;;;;;;;;5071792;28;19912;-72
2023/10/06 09:53:53;;;;;;;;;;;;;;;;;;5070783;28;19916;-70
2023/10/06 09:56:20;;;;;;;;;;;;;;;;;;5071612;28;19966;-71
2023/10/06 09:58:48;;;;;;;;;;;;;;;;;;5071887;28;19909;-71
2023/10/06 10:01:14;;;;;;;;;;;;;;;;;;5071335;28;20320;-70
2023/10/06 10:03:40;;;;;;;;;;;;;;;;;;5069894;28;19908;-70
2023/10/06 10:06:06;;;;;;;;;;;;;;;;;;5070996;28;19927;-70
2023/10/06 10:08:32;;;;;;;;;;;;;;;;;;5071179;28;19908;-70
2023/10/06 10:11:01;;;;;;;;;;;;;;;;;;5071139;28;19909;-69
2023/10/06 10:13:31;;;;;;;;;;;;;;;;;;5070806;28;19956;-71
2023/10/06 10:16:01;;;;;;;;;;;;;;;;;;5071330;28;19999;-71
2023/10/06 10:18:30;;;;;;;;;;;;;;;;;;5072753;28;20692;-70
2023/10/06 10:20:59;;;;;;;;;;;;;;;;;;5071256;28;19912;-70
2023/10/06 10:23:25;;;;;;;;;;;;;;;;;;5069957;28;19950;-71
2023/10/06 10:25:51;;;;;;;;;;;;;;;;;;5071367;28;19921;-71
2023/10/06 10:28:19;;;;;;;;;;;;;;;;;;5072597;28;19908;-72
2023/10/06 10:30:46;;;;;;;;;;;;;;;;;;5069290;28;19920;-71
2023/10/06 10:33:12;;;;;;;;;;;;;;;;;;5065773;28;19955;-71
2023/10/06 10:35:39;;;;;;;;;;;;;;;;;;5067507;28;20364;-71
2023/10/06 10:38:06;;;;;;;;;;;;;;;;;;5071406;28;19908;-71
2023/10/06 10:40:33;;;;;;;;;;;;;;;;;;5070698;28;19913;-70
2023/10/06 10:42:59;;;;;;;;;;;;;;;;;;5069945;28;20052;-70
2023/10/06 10:45:25;;;;;;;;;;;;;;;;;;5071507;28;19909;-69
2023/10/06 10:47:51;;;;;;;;;;;;;;;;;;5067690;28;19916;-71
2023/10/06 10:50:17;;;;;;;;;;;;;;;;;;5074942;28;19962;-71
2023/10/06 10:52:45;;;;;;;;;;;;;;;;;;5074049;28;20121;-71
2023/10/06 10:55:13;;;;;;;;;;;;;;;;;;5072314;28;20351;-70
2023/10/06 10:57:38;;;;;;;;;;;;;;;;;;5074193;28;19916;-70
2023/10/06 11:02:33;;;;;;;;;;;;;;;;;;5074518;28;19908;-71
2023/10/06 11:04:59;;;;;;;;;;;;;;;;;;5073885;28;19916;-71
2023/10/06 11:07:28;;;;;;;;;;;;;;;;;;5072819;28;19908;-71
2023/10/06 11:09:54;;;;;;;;;;;;;;;;;;5074134;28;19946;-70
2023/10/06 11:12:20;;;;;;;;;;;;;;;;;;5074046;28;20383;-71
2023/10/06 11:14:46;;;;;;;;;;;;;;;;;;5073528;28;19929;-72
2023/10/06 11:17:12;;;;;;;;;;;;;;;;;;5073883;28;20007;-70
2023/10/06 11:19:38;;;;;;;;;;;;;;;;;;5073449;28;20379;-71
2023/10/06 11:22:04;;;;;;;;;;;;;;;;;;5073660;28;19908;-70
2023/10/06 11:24:30;;;;;;;;;;;;;;;;;;5072858;28;20383;-70
2023/10/06 11:27:04;;;;;;;;;;;;;;;;;;5066997;28;20050;-73
2023/10/06 11:29:30;;;;;;;;;;;;;;;;;;5071598;28;19912;-74
2023/10/06 11:31:57;;;;;;;;;;;;;;;;;;5070772;28;19912;-73
2023/10/06 11:34:25;;;;;;;;;;;;;;;;;;5071971;28;19938;-73
2023/10/06 11:36:52;;;;;;;;;;;;;;;;;;5071001;28;20391;-73
2023/10/06 11:39:18;;;;;;;;;;;;;;;;;;5072323;28;20009;-72
2023/10/06 11:41:50;;;;;;;;;;;;;;;;;;5072113;28;19967;-73
2023/10/06 11:44:16;;;;;;;;;;;;;;;;;;5070510;28;20324;-73
2023/10/06 11:46:42;;;;;;;;;;;;;;;;;;5071643;28;19908;-73
2023/10/06 11:49:14;;;;;;;;;;;;;;;;;;5072976;28;19909;-73
2023/10/06 11:51:40;;;;;;;;;;;;;;;;;;5073947;28;20379;-72
2023/10/06 11:54:06;;;;;;;;;;;;;;;;;;5073191;28;19909;-73
2023/10/06 11:56:32;;;;;;;;;;;;;;;;;;5074086;28;19908;-73
2023/10/06 11:59:01;;;;;;;;;;;;;;;;;;5073192;28;19915;-72
2023/10/06 12:01:29;;;;;;;;;;;;;;;;;;5072511;28;19908;-72
2023/10/06 12:03:59;;;;;;;;;;;;;;;;;;5073495;28;19999;-72
2023/10/06 12:06:27;;;;;;;;;;;;;;;;;;5074218;28;20397;-72
2023/10/06 12:08:53;;;;;;;;;;;;;;;;;;5073706;28;19912;-72
2023/10/06 12:11:22;;;;;;;;;;;;;;;;;;5072563;28;20364;-73
2023/10/06 12:13:48;;;;;;;;;;;;;;;;;;5072195;28;19933;-72
2023/10/06 12:16:14;;;;;;;;;;;;;;;;;;5071712;28;20061;-73
2023/10/06 12:18:43;;;;;;;;;;;;;;;;;;5072342;28;20449;-72
2023/10/06 12:21:11;;;;;;;;;;;;;;;;;;5073327;28;19958;-74
2023/10/06 12:23:37;;;;;;;;;;;;;;;;;;5072099;28;19912;-73
2023/10/06 12:26:05;;;;;;;;;;;;;;;;;;5073661;28;20337;-74
2023/10/06 12:28:31;;;;;;;;;;;;;;;;;;5073667;28;20066;-73
2023/10/06 12:30:57;;;;;;;;;;;;;;;;;;5073339;28;19944;-74
2023/10/06 12:33:23;;;;;;;;;;;;;;;;;;5073644;28;19960;-75
2023/10/06 12:35:52;;;;;;;;;;;;;;;;;;5073223;28;19908;-73
2023/10/06 12:38:18;;;;;;;;;;;;;;;;;;5074093;28;20007;-74
2023/10/06 12:40:46;;;;;;;;;;;;;;;;;;5073560;28;20368;-73
2023/10/06 12:43:12;;;;;;;;;;;;;;;;;;5072316;28;20406;-73
2023/10/06 12:45:38;;;;;;;;;;;;;;;;;;5072340;28;19912;-74
2023/10/06 12:48:07;;;;;;;;;;;;;;;;;;5073327;28;20406;-74
2023/10/06 12:50:40;;;;;;;;;;;;;;;;;;5073836;28;19908;-74
2023/10/06 12:53:08;;;;;;;;;;;;;;;;;;5074317;28;19909;-73
2023/10/06 12:55:41;;;;;;;;;;;;;;;;;;5074821;28;19908;-74
2023/10/06 12:58:10;;;;;;;;;;;;;;;;;;5073706;28;19912;-73
2023/10/06 13:00:36;;;;;;;;;;;;;;;;;;5058730;28;19923;-73
2023/10/06 13:03:13;;;;;;;;;;;;;;;;;;5053060;28;20315;-72
2023/10/06 13:05:41;;;;;;;;;;;;;;;;;;5052412;28;19915;-73
2023/10/06 13:08:09;;;;;;;;;;;;;;;;;;5052463;28;20298;-72
2023/10/06 13:10:43;;;;;;;;;;;;;;;;;;5052382;28;19915;-72
2023/10/06 13:13:09;;;;;;;;;;;;;;;;;;5052393;28;20300;-73
2023/10/06 13:15:34;;;;;;;;;;;;;;;;;;5052116;28;19909;-73
2023/10/06 13:18:01;;;;;;;;;;;;;;;;;;5060450;28;19955;-73
2023/10/06 13:20:27;;;;;;;;;;;;;;;;;;5090945;28;19916;-72
2023/10/06 13:22:53;;;;;;;;;;;;;;;;;;5092036;28;19930;-73
2023/10/06 13:25:19;;;;;;;;;;;;;;;;;;5091623;28;20383;-73
2023/10/06 13:27:48;;;;;;;;;;;;;;;;;;5092426;28;19951;-72
2023/10/06 13:30:14;;;;;;;;;;;;;;;;;;5072317;28;19940;-71
2023/10/06 13:32:41;;;;;;;;;;;;;;;;;;5083912;22;19954;-73
2023/10/06 13:35:11;;;;;;;;;;;;;;;;;;5071654;28;19982;-72
2023/10/06 13:37:37;;;;;;;;;;;;;;;;;;5072585;28;19909;-73
2023/10/06 13:40:04;;;;;;;;;;;;;;;;;;5072990;28;19916;-73
2023/10/06 13:42:30;;;;;;;;;;;;;;;;;;5072339;28;19953;-73
2023/10/06 13:44:56;;;;;;;;;;;;;;;;;;5053605;28;19912;-72
2023/10/06 13:47:22;;;;;;;;;;;;;;;;;;5054674;28;19913;-73
2023/10/06 13:49:53;;;;;;;;;;;;;;;;;;5051873;28;19919;-71
2023/10/06 13:52:18;;;;;;;;;;;;;;;;;;5051594;28;19920;-72
2023/10/06 13:54:44;;;;;;;;;;;;;;;;;;5050948;28;19908;-72
2023/10/06 13:57:10;;;;;;;;;;;;;;;;;;5052658;28;19912;-73
2023/10/06 13:59:42;;;;;;;;;;;;;;;;;;5071406;28;19924;-73
2023/10/06 14:02:08;;;;;;;;;;;;;;;;;;5053975;28;19912;-73
2023/10/06 14:04:34;;;;;;;;;;;;;;;;;;5070771;28;19915;-73
2023/10/06 14:07:05;;;;;;;;;;;;;;;;;;5070141;28;19931;-72
2023/10/06 14:09:31;;;;;;;;;;;;;;;;;;5071665;28;19905;-73
2023/10/06 14:11:57;;;;;;;;;;;;;;;;;;5070101;28;19908;-72
2023/10/06 14:15:21;;;;;;;;;;;;;;;;;;5070862;28;19904;-73
2023/10/06 14:17:16;;;;;;;;;;;;;;;;;;5060584;28;19959;-71
2023/10/06 14:19:43;;;;;;;;;;;;;;;;;;5070248;28;19916;-73
2023/10/06 14:22:09;;;;;;;;;;;;;;;;;;5071356;28;19948;-73
2023/10/06 14:24:39;;;;;;;;;;;;;;;;;;5070747;28;20013;-73
2023/10/06 14:27:05;;;;;;;;;;;;;;;;;;5071461;28;20280;-73
2023/10/06 14:29:31;;;;;;;;;;;;;;;;;;5071400;28;20020;-73
2023/10/06 14:32:42;;;;;;;;;;;;;;;;;;5071073;28;20360;-72
2023/10/06 14:34:57;;;;;;;;;;;;;;;;;;5062662;28;20075;-73
2023/10/06 14:45:57;;;;;;;;;;;;;;;;;;5071572;28;20319;-73
2023/10/06 14:46:01;;;;;;;;;;;;;;;;;;5070737;28;19919;-72
2023/10/06 14:48:29;;;;;;;;;;;;;;;;;;5071586;28;19926;-72
2023/10/06 14:50:55;;;;;;;;;;;;;;;;;;5070352;28;19909;-72
2023/10/06 14:53:21;;;;;;;;;;;;;;;;;;5071274;28;19916;-72
2023/10/06 14:55:47;;;;;;;;;;;;;;;;;;5060055;28;19912;-73
2023/10/06 14:58:13;;;;;;;;;;;;;;;;;;5070543;28;19927;-73
2023/10/06 15:00:39;;;;;;;;;;;;;;;;;;5068848;28;19966;-73
2023/10/06 15:03:08;;;;;;;;;;;;;;;;;;5070754;28;20337;-71
2023/10/06 15:05:36;;;;;;;;;;;;;;;;;;5070647;28;19974;-71
2023/10/06 15:08:02;;;;;;;;;;;;;;;;;;5070963;28;20383;-72
2023/10/06 15:10:28;;;;;;;;;;;;;;;;;;5070150;28;19916;-73
2023/10/06 15:12:58;;;;;;;;;;;;;;;;;;5071192;28;19915;-73
2023/10/06 15:15:24;;;;;;;;;;;;;;;;;;5070224;28;19909;-73
2023/10/06 15:17:54;;;;;;;;;;;;;;;;;;5070788;28;20264;-73
2023/10/06 15:20:20;;;;;;;;;;;;;;;;;;5070950;28;19913;-72
2023/10/06 15:22:47;;;;;;;;;;;;;;;;;;5061146;28;19909;-72
2023/10/06 15:25:13;;;;;;;;;;;;;;;;;;5066336;28;19912;-72
2023/10/06 15:27:39;;;;;;;;;;;;;;;;;;5070798;28;19955;-73
2023/10/06 15:30:05;;;;;;;;;;;;;;;;;;5052338;28;20331;-72
2023/10/06 15:32:31;;;;;;;;;;;;;;;;;;5071234;28;19916;-73
2023/10/06 15:34:57;;;;;;;;;;;;;;;;;;5073781;28;20310;-71
2023/10/06 15:37:23;;;;;;;;;;;;;;;;;;5065634;28;19958;-73
2023/10/06 15:39:50;;;;;;;;;;;;;;;;;;5067086;28;19936;-72
2023/10/06 15:42:16;;;;;;;;;;;;;;;;;;5074460;28;19909;-72
2023/10/06 15:44:42;;;;;;;;;;;;;;;;;;5073604;28;19966;-72
2023/10/06 15:47:09;;;;;;;;;;;;;;;;;;5067789;28;19912;-70
2023/10/06 15:49:37;;;;;;;;;;;;;;;;;;5073984;28;19944;-73
2023/10/06 15:52:03;;;;;;;;;;;;;;;;;;5067541;28;19958;-72
2023/10/06 15:54:29;;;;;;;;;;;;;;;;;;5071350;28;20007;-74
2023/10/06 15:56:54;;;;;;;;;;;;;;;;;;5073449;28;19908;-71
2023/10/06 15:59:24;;;;;;;;;;;;;;;;;;5065144;28;19913;-71
2023/10/06 16:01:49;;;;;;;;;;;;;;;;;;5073695;28;19908;-72
2023/10/06 16:04:17;;;;;;;;;;;;;;;;;;5073255;28;20256;-72
2023/10/06 16:06:43;;;;;;;;;;;;;;;;;;5073960;28;19912;-73
2023/10/06 16:09:09;;;;;;;;;;;;;;;;;;5056133;28;19908;-71
2023/10/06 16:11:35;;;;;;;;;;;;;;;;;;5074006;28;19924;-73
2023/10/06 16:14:04;;;;;;;;;;;;;;;;;;5055144;28;19998;-73
2023/10/06 16:16:30;;;;;;;;;;;;;;;;;;5073477;28;20390;-73
2023/10/06 16:18:56;;;;;;;;;;;;;;;;;;5073359;28;19909;-73
2023/10/06 16:21:22;;;;;;;;;;;;;;;;;;5073479;28;19915;-72
2023/10/06 16:23:51;;;;;;;;;;;;;;;;;;5054898;28;20756;-73
2023/10/06 16:26:18;;;;;;;;;;;;;;;;;;5073268;28;20335;-72
2023/10/06 16:28:44;;;;;;;;;;;;;;;;;;5073805;28;20041;-72
2023/10/06 16:31:13;;;;;;;;;;;;;;;;;;5073014;28;20517;-71
2023/10/06 16:33:42;;;;;;;;;;;;;;;;;;5072757;28;19999;-72
2023/10/06 16:36:10;;;;;;;;;;;;;;;;;;5055233;28;19908;-71
2023/10/06 16:38:38;;;;;;;;;;;;;;;;;;5072929;28;19912;-72
2023/10/06 16:41:04;;;;;;;;;;;;;;;;;;5072902;28;19919;-71
2023/10/06 16:43:31;;;;;;;;;;;;;;;;;;5072056;28;20280;-71
2023/10/06 16:45:57;;;;;;;;;;;;;;;;;;5073261;28;19908;-72
2023/10/06 16:48:23;;;;;;;;;;;;;;;;;;5073062;28;19909;-72
2023/10/06 16:50:53;;;;;;;;;;;;;;;;;;5073272;28;20374;-72
2023/10/06 16:53:19;;;;;;;;;;;;;;;;;;5072795;28;20478;-72
2023/10/06 16:55:45;;;;;;;;;;;;;;;;;;5072374;28;20011;-72
2023/10/06 16:58:11;;;;;;;;;;;;;;;;;;5072995;28;19909;-73
2023/10/06 17:00:37;;;;;;;;;;;;;;;;;;5072897;28;19920;-73